Time;durP1;ratioP1;P1;durP2;ratioP2;P2;SDS_P1;SDS_P2;PMS_P1;PMS_P2;Temp;Humidity;BMP_temperature;BMP_pressure;BME280_temperature;BME280_humidity;BME280_pressure;Samples;Min_cycle;Max_cycle;Signal;HPM_P1;HPM_P2
2023/03/17 00:00:37;;;;;;;14.18;4.22;;;;;;;9.55;46.33;94910.84;4995869;28;20076;-87
2023/03/17 00:03:04;;;;;;;10.90;4.28;;;;;;;9.52;46.26;94909.50;4996312;28;20065;-87
2023/03/17 00:05:32;;;;;;;11.82;4.43;;;;;;;9.63;46.09;94905.19;4996258;28;20026;-87
2023/03/17 00:08:06;;;;;;;8.65;4.30;;;;;;;9.61;46.31;94904.63;4996286;28;20027;-88
2023/03/17 00:10:31;;;;;;;9.63;4.47;;;;;;;9.45;46.46;94901.06;4996161;28;20045;-88
2023/03/17 00:12:57;;;;;;;13.48;4.70;;;;;;;9.31;46.80;94901.47;4996238;28;20027;-87
2023/03/17 00:15:25;;;;;;;15.43;4.75;;;;;;;9.31;46.71;94900.66;4997234;28;20027;-87
2023/03/17 00:17:53;;;;;;;8.77;3.90;;;;;;;9.24;46.86;94903.47;4996131;28;20523;-87
2023/03/17 00:20:28;;;;;;;8.52;3.50;;;;;;;9.40;46.60;94888.72;4998065;28;20022;-87
2023/03/17 00:22:56;;;;;;;11.75;3.90;;;;;;;9.38;46.39;94903.88;4999795;28;20052;-86
2023/03/17 00:25:27;;;;;;;9.10;4.85;;;;;;;9.69;45.54;94891.09;4983803;28;20022;-87
2023/03/17 00:27:54;;;;;;;9.68;3.63;;;;;;;9.52;46.43;94896.44;4999925;28;20027;-87
2023/03/17 00:30:21;;;;;;;11.80;4.15;;;;;;;9.42;46.21;94885.88;4999893;28;20026;-87
2023/03/17 00:32:48;;;;;;;11.50;4.60;;;;;;;9.47;46.49;94901.63;4999915;28;20045;-87
2023/03/17 00:35:22;;;;;;;9.00;3.70;;;;;;;9.21;47.22;94906.56;4999987;28;20022;-86
2023/03/17 00:37:49;;;;;;;6.50;3.55;;;;;;;9.29;46.54;94900.13;4999482;28;20026;-87
2023/03/17 00:40:22;;;;;;;9.65;3.58;;;;;;;9.52;46.08;94893.81;5000810;28;20428;-87
2023/03/17 00:42:49;;;;;;;11.75;3.63;;;;;;;9.10;47.42;94897.84;5000431;28;20395;-87
2023/03/17 00:45:15;;;;;;;10.38;3.85;;;;;;;9.11;46.77;94901.22;4999625;28;20033;-87
2023/03/17 00:47:42;;;;;;;8.10;3.65;;;;;;;9.27;46.99;94902.19;4999628;28;20034;-87
2023/03/17 00:50:27;;;;;;;10.07;3.70;;;;;;;9.46;46.64;94902.66;4999391;28;20026;-87
2023/03/17 00:52:55;;;;;;;8.18;3.50;;;;;;;9.10;47.67;94905.69;4999492;28;20084;-87
2023/03/17 00:55:22;;;;;;;9.32;3.15;;;;;;;9.27;46.88;94910.84;4999655;28;20027;-86
2023/03/17 00:57:49;;;;;;;11.95;2.95;;;;;;;9.33;46.93;94906.47;4983068;28;20360;-86
2023/03/17 01:00:20;;;;;;;5.90;3.15;;;;;;;9.39;46.85;94913.31;4998900;28;20033;-87
2023/03/17 01:02:46;;;;;;;9.85;3.17;;;;;;;9.32;46.60;94899.63;4999397;28;20069;-87
2023/03/17 01:05:12;;;;;;;9.45;3.17;;;;;;;9.40;46.18;94891.34;5031795;28;20392;-87
2023/03/17 01:07:38;;;;;;;9.35;3.72;;;;;;;9.32;46.76;94899.63;4982759;28;20030;-87
2023/03/17 01:10:22;;;;;;;16.88;3.35;;;;;;;9.32;47.28;94899.63;4999063;28;20467;-87
2023/03/17 01:12:48;;;;;;;7.10;2.92;;;;;;;9.16;47.11;94890.84;4998997;28;20029;-87
2023/03/17 01:15:15;;;;;;;8.85;3.35;;;;;;;9.28;46.80;94890.69;4998630;28;20031;-86
2023/03/17 01:17:40;;;;;;;9.05;2.75;;;;;;;9.14;47.39;94887.69;4998777;28;20093;-87
2023/03/17 01:20:10;;;;;;;8.65;3.08;;;;;;;9.23;46.86;94878.34;4998572;28;20030;-87
2023/03/17 01:22:36;;;;;;;9.48;2.80;;;;;;;9.03;46.87;94881.53;4999010;28;20093;-87
2023/03/17 01:25:02;;;;;;;7.93;3.30;;;;;;;8.79;47.58;94881.81;4999158;28;20412;-87
2023/03/17 01:27:27;;;;;;;9.27;3.45;;;;;;;8.50;48.65;94881.97;4999183;28;20045;-86
2023/03/17 01:29:54;;;;;;;8.38;2.88;;;;;;;8.72;47.96;94881.19;4998431;28;20459;-87
2023/03/17 01:32:20;;;;;;;6.57;2.75;;;;;;;8.66;48.01;94874.31;4998154;28;20030;-86
2023/03/17 01:34:46;;;;;;;7.70;3.03;;;;;;;8.64;48.31;94877.16;4998281;28;20498;-86
2023/03/17 01:37:13;;;;;;;10.82;3.15;;;;;;;8.85;48.31;94867.75;4998749;28;20034;-87
2023/03/17 01:39:39;;;;;;;9.77;3.13;;;;;;;8.34;48.71;94868.66;4998365;28;20037;-87
2023/03/17 01:42:06;;;;;;;5.70;3.08;;;;;;;8.42;48.55;94874.50;4998674;28;20034;-87
2023/03/17 01:44:31;;;;;;;9.73;3.35;;;;;;;8.48;48.50;94873.53;4999727;28;20053;-87
2023/03/17 01:46:57;;;;;;;7.03;3.50;;;;;;;8.53;48.61;94860.56;4998553;28;20077;-87
2023/03/17 01:49:30;;;;;;;10.63;4.22;;;;;;;8.58;49.20;94865.06;4998254;28;20034;-87
2023/03/17 01:52:13;;;;;;;14.25;4.20;;;;;;;8.59;48.94;94858.81;4998443;28;20030;-87
2023/03/17 01:54:46;;;;;;;9.93;3.33;;;;;;;8.56;48.81;94873.16;4982489;28;20041;-87
2023/03/17 01:57:15;;;;;;;10.45;3.72;;;;;;;8.54;48.54;94867.38;4999322;28;20057;-87
2023/03/17 01:59:46;;;;;;;6.88;3.15;;;;;;;8.76;48.54;94859.56;4982089;28;20088;-87
2023/03/17 02:02:14;;;;;;;9.02;3.45;;;;;;;8.63;48.52;94865.94;4998005;28;20030;-87
2023/03/17 02:04:40;;;;;;;13.65;3.90;;;;;;;8.02;49.60;94866.63;4998196;28;20458;-86
2023/03/17 02:07:05;;;;;;;12.77;4.07;;;;;;;8.10;49.41;94865.44;4997954;28;20030;-87
2023/03/17 02:09:32;;;;;;;13.45;4.07;;;;;;;8.29;49.31;94860.75;4982041;28;20030;-87
2023/03/17 02:11:59;;;;;;;9.02;3.97;;;;;;;8.54;48.88;94864.00;4998058;28;20318;-87
2023/03/17 02:14:25;;;;;;;6.72;3.35;;;;;;;8.32;49.46;94856.88;4997991;28;20447;-86
2023/03/17 02:16:51;;;;;;;16.05;4.13;;;;;;;8.34;49.43;94863.44;4997614;28;20452;-87
2023/03/17 02:19:17;;;;;;;9.07;3.67;;;;;;;8.22;48.50;94854.91;4981824;28;20124;-86
2023/03/17 02:21:46;;;;;;;10.38;3.40;;;;;;;8.21;49.09;94856.72;4998842;28;20503;-87
2023/03/17 02:24:19;;;;;;;12.18;4.07;;;;;;;8.38;48.34;94861.13;4981784;28;20026;-87
2023/03/17 02:26:46;;;;;;;6.10;3.20;;;;;;;8.29;48.98;94863.34;4998739;28;20353;-87
2023/03/17 02:29:13;;;;;;;10.50;3.10;;;;;;;8.41;48.56;94857.25;4997566;28;20080;-87
2023/03/17 02:31:39;;;;;;;8.27;3.45;;;;;;;8.02;48.31;94852.78;4997640;28;20088;-87
2023/03/17 02:34:05;;;;;;;9.50;3.28;;;;;;;7.99;48.20;94850.69;4997596;28;20026;-86
2023/03/17 02:36:30;;;;;;;10.10;3.47;;;;;;;8.18;48.30;94846.75;4998517;28;20440;-87
2023/03/17 02:38:56;;;;;;;11.05;3.33;;;;;;;7.98;48.76;94851.72;4997456;28;20037;-86
2023/03/17 02:41:22;;;;;;;9.02;3.33;;;;;;;7.99;48.61;94848.84;4997281;28;20030;-86
2023/03/17 02:43:47;;;;;;;8.55;3.30;;;;;;;7.80;48.73;94850.91;4996150;28;20026;-86
2023/03/17 02:46:13;;;;;;;13.13;3.35;;;;;;;8.04;48.03;94848.94;4997168;28;20033;-87
2023/03/17 02:48:39;;;;;;;9.90;3.35;;;;;;;8.23;47.74;94851.28;4997327;28;20349;-86
2023/03/17 02:51:04;;;;;;;8.65;3.20;;;;;;;8.28;47.01;94847.94;4997066;28;20113;-87
2023/03/17 02:53:30;;;;;;;9.88;3.53;;;;;;;8.20;47.65;94841.31;4997509;28;20432;-87
2023/03/17 02:55:56;;;;;;;10.40;3.65;;;;;;;8.35;46.97;94843.34;4997139;28;20034;-87
2023/03/17 02:58:22;;;;;;;6.65;3.22;;;;;;;8.50;46.65;94842.78;4997004;28;20109;-86
2023/03/17 03:00:48;;;;;;;14.38;3.38;;;;;;;8.51;46.70;94852.19;4996858;28;20157;-87
2023/03/17 03:03:14;;;;;;;8.80;3.50;;;;;;;8.56;46.59;94846.25;4997415;28;20455;-87
2023/03/17 03:05:40;;;;;;;6.22;3.10;;;;;;;8.64;45.88;94840.59;4981137;28;20082;-87
2023/03/17 03:08:05;;;;;;;8.18;3.20;;;;;;;8.62;46.05;94845.28;4997059;28;20026;-86
2023/03/17 03:10:31;;;;;;;10.30;3.20;;;;;;;8.27;47.97;94847.16;4996554;28;20030;-87
2023/03/17 03:12:56;;;;;;;8.45;3.05;;;;;;;8.24;47.10;94846.81;4998187;28;20138;-87
2023/03/17 03:15:22;;;;;;;8.98;3.58;;;;;;;8.31;47.05;94847.47;4998023;28;20057;-87
2023/03/17 03:17:47;;;;;;;7.78;3.05;;;;;;;8.20;47.35;94854.38;4980551;28;20030;-87
2023/03/17 03:20:13;;;;;;;7.70;3.42;;;;;;;7.98;47.66;94855.09;4996756;28;20391;-87
2023/03/17 03:22:39;;;;;;;10.55;3.47;;;;;;;8.04;47.71;94854.16;4980916;28;20026;-86
2023/03/17 03:25:07;;;;;;;6.63;2.75;;;;;;;8.24;46.23;94855.47;4996461;28;20053;-87
2023/03/17 03:27:33;;;;;;;6.32;3.20;;;;;;;8.21;46.38;94853.34;4997929;28;20042;-87
2023/03/17 03:29:58;;;;;;;6.18;3.05;;;;;;;8.35;45.49;94859.81;4997785;28;20433;-87
2023/03/17 03:32:24;;;;;;;7.35;2.60;;;;;;;8.39;44.08;94859.31;4980675;28;20030;-87
2023/03/17 03:34:49;;;;;;;9.18;2.40;;;;;;;8.41;43.46;94858.06;4996170;28;20037;-87
2023/03/17 03:37:15;;;;;;;8.38;2.80;;;;;;;7.83;45.78;94860.06;4996508;28;20089;-87
2023/03/17 03:39:41;;;;;;;5.28;2.75;;;;;;;7.99;45.01;94854.06;4996477;28;20034;-87
2023/03/17 03:42:06;;;;;;;5.63;2.53;;;;;;;8.07;45.42;94852.88;4996547;28;20026;-87
2023/03/17 03:44:32;;;;;;;5.72;2.70;;;;;;;7.98;46.13;94857.69;4996338;28;20074;-87
2023/03/17 03:46:57;;;;;;;5.07;2.40;;;;;;;7.81;45.89;94860.31;4980106;28;20030;-87
2023/03/17 03:49:23;;;;;;;9.40;3.35;;;;;;;7.71;45.78;94860.94;4997541;28;20465;-86
2023/03/17 03:51:48;;;;;;;6.43;2.25;;;;;;;7.55;46.72;94856.50;4996138;28;20125;-86
2023/03/17 03:54:14;;;;;;;7.32;2.90;;;;;;;7.73;45.41;94864.09;4995620;28;20034;-87
2023/03/17 03:56:39;;;;;;;7.15;2.92;;;;;;;7.73;45.44;94858.09;4997533;28;20120;-87
2023/03/17 03:59:05;;;;;;;6.03;2.72;;;;;;;7.80;45.16;94861.31;4996039;28;20105;-87
2023/03/17 04:01:30;;;;;;;5.20;2.95;;;;;;;7.82;45.59;94868.94;4996300;28;20026;-87
2023/03/17 04:03:56;;;;;;;7.88;2.67;;;;;;;7.82;45.25;94863.72;4996300;28;20417;-87
2023/03/17 04:06:21;;;;;;;7.60;2.58;;;;;;;7.67;46.03;94867.66;4996285;28;20421;-86
2023/03/17 04:08:46;;;;;;;5.22;2.75;;;;;;;7.84;46.13;94869.47;4995902;28;20352;-86
2023/03/17 04:11:12;;;;;;;8.85;3.13;;;;;;;7.88;46.20;94867.97;4995975;28;20030;-87
2023/03/17 04:13:37;;;;;;;9.05;3.47;;;;;;;7.95;46.14;94860.78;4996031;28;20089;-87
2023/03/17 04:16:03;;;;;;;11.13;3.00;;;;;;;8.01;45.61;94865.03;4996332;28;20026;-87
2023/03/17 04:18:30;;;;;;;6.22;2.50;;;;;;;8.11;45.63;94864.44;4996098;28;20037;-87
2023/03/17 04:20:55;;;;;;;5.50;2.60;;;;;;;8.05;45.58;94857.53;4995919;28;20041;-87
2023/03/17 04:23:21;;;;;;;4.95;2.28;;;;;;;8.14;45.50;94863.94;4996158;28;20030;-87
2023/03/17 04:25:49;;;;;;;7.32;2.72;;;;;;;8.34;43.81;94860.84;4979756;28;20027;-87
2023/03/17 04:28:15;;;;;;;6.72;2.42;;;;;;;8.14;43.90;94861.34;4980074;28;20069;-87
2023/03/17 04:30:40;;;;;;;7.20;2.97;;;;;;;7.97;44.96;94852.72;4996257;28;20054;-87
2023/03/17 04:33:06;;;;;;;6.03;2.83;;;;;;;7.97;44.38;94858.72;4995989;28;20038;-87
2023/03/17 04:35:31;;;;;;;8.98;2.78;;;;;;;7.97;44.53;94866.56;4995938;28;20041;-87
2023/03/17 04:37:57;;;;;;;11.90;2.70;;;;;;;7.95;44.61;94860.78;4996051;28;20037;-87
2023/03/17 04:40:22;;;;;;;5.30;2.38;;;;;;;7.90;45.16;94853.66;4995837;28;20049;-87
2023/03/17 04:42:47;;;;;;;4.38;2.55;;;;;;;7.83;45.04;94860.88;4995733;28;20034;-87
2023/03/17 04:45:14;;;;;;;11.00;4.18;;;;;;;7.56;45.80;94860.69;4996852;28;20026;-87
2023/03/17 04:47:40;;;;;;;8.45;3.45;;;;;;;7.75;45.24;94858.66;4995654;28;20133;-87
2023/03/17 04:50:07;;;;;;;6.22;2.90;;;;;;;7.63;46.23;94859.50;5028409;28;20490;-87
2023/03/17 04:52:34;;;;;;;7.55;3.20;;;;;;;7.52;47.83;94857.75;4995831;28;20033;-87
2023/03/17 04:54:59;;;;;;;13.20;3.30;;;;;;;7.39;47.34;94853.63;4995693;28;20084;-87
2023/03/17 04:57:24;;;;;;;7.18;3.03;;;;;;;7.48;46.98;94847.03;4995845;28;20038;-87
2023/03/17 04:59:50;;;;;;;11.30;3.25;;;;;;;7.57;46.13;94852.63;4995508;28;20034;-87
2023/03/17 05:02:17;;;;;;;3.65;2.15;;;;;;;7.71;45.72;94853.09;4995817;28;20343;-87
2023/03/17 05:04:44;;;;;;;8.30;2.67;;;;;;;7.57;46.25;94850.03;4994622;28;20046;-87
2023/03/17 05:07:10;;;;;;;8.18;2.92;;;;;;;7.61;45.78;94850.34;4997332;28;20026;-87
2023/03/17 05:09:36;;;;;;;4.95;2.38;;;;;;;7.53;45.96;94851.53;5000276;28;20050;-87
2023/03/17 05:12:02;;;;;;;7.82;2.97;;;;;;;7.56;46.02;94843.25;4999176;28;20033;-88
2023/03/17 05:14:27;;;;;;;6.25;2.45;;;;;;;7.62;45.58;94852.72;5000184;28;20030;-87
2023/03/17 05:16:53;;;;;;;5.80;2.90;;;;;;;7.59;45.92;94853.19;5000178;28;20030;-87
2023/03/17 05:19:18;;;;;;;5.75;2.80;;;;;;;7.58;45.65;94850.81;4998904;28;20395;-87
2023/03/17 05:21:44;;;;;;;5.80;2.67;;;;;;;7.61;45.94;94855.56;4998960;28;20092;-87
2023/03/17 05:24:10;;;;;;;4.55;1.70;;;;;;;7.69;44.96;94852.56;4998899;28;20115;-87
2023/03/17 05:26:39;;;;;;;9.35;2.33;;;;;;;7.68;44.54;94852.81;4999104;28;20026;-87
2023/03/17 05:29:05;;;;;;;6.35;2.35;;;;;;;7.62;43.66;94854.53;4984896;28;20034;-87
2023/03/17 05:31:30;;;;;;;5.15;1.73;;;;;;;7.71;40.62;94847.13;4998888;28;20030;-87
2023/03/17 05:33:56;;;;;;;3.78;1.40;;;;;;;7.77;39.91;94851.38;4998763;28;20455;-88
2023/03/17 05:36:22;;;;;;;3.25;1.25;;;;;;;7.80;37.58;94850.13;4999011;28;20093;-87
2023/03/17 05:38:47;;;;;;;8.02;1.40;;;;;;;7.90;36.84;94847.69;4998937;28;20030;-88
2023/03/17 05:41:13;;;;;;;2.13;1.25;;;;;;;8.01;38.08;94849.38;4998720;28;20036;-88
2023/03/17 05:43:38;;;;;;;1.88;1.15;;;;;;;8.04;37.35;94848.94;4998603;28;20026;-88
2023/03/17 05:46:04;;;;;;;1.50;1.10;;;;;;;7.88;40.40;94844.50;4998643;28;20026;-87
2023/03/17 05:48:30;;;;;;;1.83;1.10;;;;;;;7.80;40.68;94850.13;4998486;28;20443;-86
2023/03/17 05:50:56;;;;;;;1.63;1.00;;;;;;;7.75;39.21;94856.84;4998306;28;20081;-87
2023/03/17 05:53:22;;;;;;;4.63;0.90;;;;;;;7.86;38.79;94859.59;4998153;28;20030;-86
2023/03/17 05:55:47;;;;;;;2.83;1.20;;;;;;;8.07;39.06;94848.44;4982194;28;20076;-87
2023/03/17 05:58:14;;;;;;;2.70;1.08;;;;;;;8.15;36.83;94849.88;4998192;28;20030;-86
2023/03/17 06:00:40;;;;;;;1.92;1.23;;;;;;;8.57;37.65;94845.22;4998082;28;20026;-86
2023/03/17 06:03:06;;;;;;;4.07;1.13;;;;;;;8.51;37.54;94851.38;4998084;28;20054;-86
2023/03/17 06:05:32;;;;;;;1.25;0.90;;;;;;;8.70;37.94;94847.47;4997945;28;20080;-87
2023/03/17 06:07:57;;;;;;;2.75;1.13;;;;;;;8.83;40.28;94848.16;4998408;28;20057;-86
2023/03/17 06:10:23;;;;;;;1.52;0.95;;;;;;;9.09;38.83;94851.00;4996048;28;20080;-86
2023/03/17 06:12:49;;;;;;;3.28;1.60;;;;;;;9.27;38.38;94839.44;4997849;28;20433;-86
2023/03/17 06:15:15;;;;;;;1.27;0.80;;;;;;;9.46;39.08;94837.28;4997634;28;20049;-87
2023/03/17 06:17:41;;;;;;;2.13;1.02;;;;;;;9.61;37.54;94832.16;4997745;28;20030;-86
2023/03/17 06:20:08;;;;;;;1.58;1.13;;;;;;;9.67;38.02;94835.63;4997594;28;20038;-86
2023/03/17 06:22:36;;;;;;;3.08;1.70;;;;;;;9.84;37.87;94839.94;5030616;28;20144;-86
2023/03/17 06:25:01;;;;;;;4.97;1.40;;;;;;;9.83;38.67;94838.34;4997602;28;20022;-86
2023/03/17 06:27:27;;;;;;;6.55;1.50;;;;;;;9.94;38.58;94840.00;4997416;28;20030;-86
2023/03/17 06:29:52;;;;;;;5.35;1.75;;;;;;;10.10;38.59;94843.50;4998518;28;20030;-86
2023/03/17 06:32:18;;;;;;;3.30;1.65;;;;;;;10.25;39.04;94834.97;4998557;28;20037;-87
2023/03/17 06:34:43;;;;;;;6.10;1.90;;;;;;;10.30;39.39;94836.84;4997650;28;20340;-86
2023/03/17 06:37:09;;;;;;;4.15;2.10;;;;;;;10.29;39.37;94837.88;4997408;28;20455;-86
2023/03/17 06:39:36;;;;;;;4.00;1.88;;;;;;;10.24;37.53;94838.63;4997171;28;20026;-86
2023/03/17 06:42:02;;;;;;;8.43;2.30;;;;;;;10.28;37.20;94838.91;4997274;28;20428;-86
2023/03/17 06:44:27;;;;;;;3.13;1.70;;;;;;;10.17;39.42;94838.84;4998404;28;20032;-86
2023/03/17 06:46:53;;;;;;;2.55;1.50;;;;;;;10.50;38.73;94840.63;4997403;28;20440;-86
2023/03/17 06:49:18;;;;;;;6.60;1.95;;;;;;;10.48;37.90;94837.47;4997037;28;20096;-86
2023/03/17 06:51:44;;;;;;;4.28;1.80;;;;;;;10.80;37.45;94832.13;4996990;28;20458;-85
2023/03/17 06:54:10;;;;;;;2.38;1.63;;;;;;;10.88;37.84;94836.84;4998170;28;20113;-86
2023/03/17 06:56:36;;;;;;;4.30;1.95;;;;;;;11.13;38.60;94832.72;4997050;28;20061;-86
2023/03/17 06:59:01;;;;;;;4.68;1.80;;;;;;;11.39;39.98;94838.03;4997837;28;20129;-87
2023/03/17 07:01:27;;;;;;;5.47;1.77;;;;;;;11.62;39.85;94837.78;5013808;28;20026;-86
2023/03/17 07:03:53;;;;;;;4.60;2.08;;;;;;;11.67;39.90;94837.78;4998061;28;20030;-86
2023/03/17 07:06:18;;;;;;;3.33;1.83;;;;;;;11.74;39.90;94841.72;4996881;28;20109;-86
2023/03/17 07:08:45;;;;;;;3.85;1.73;;;;;;;11.66;41.03;94844.09;4998148;28;20037;-86
2023/03/17 07:11:11;;;;;;;3.63;1.83;;;;;;;11.76;40.54;94838.03;4996781;28;20037;-87
2023/03/17 07:13:38;;;;;;;6.68;2.35;;;;;;;11.83;40.89;94849.09;5029741;28;20030;-86
2023/03/17 07:16:03;;;;;;;4.88;1.83;;;;;;;11.72;42.10;94843.06;4997749;28;20317;-86
2023/03/17 07:18:32;;;;;;;6.45;2.50;;;;;;;12.01;40.76;94840.69;5013075;28;20076;-86
2023/03/17 07:21:01;;;;;;;4.78;2.00;;;;;;;12.49;40.14;94841.41;4997762;28;20030;-87
2023/03/17 07:23:28;;;;;;;7.47;2.75;;;;;;;12.48;39.28;94840.63;4996758;28;20456;-87
2023/03/17 07:25:53;;;;;;;6.28;2.38;;;;;;;12.36;39.64;94838.28;5013412;28;20022;-87
2023/03/17 07:28:20;;;;;;;8.05;3.13;;;;;;;11.81;38.78;94838.84;4996865;28;20030;-87
2023/03/17 07:30:47;;;;;;;6.00;2.47;;;;;;;11.75;39.60;94850.41;4996200;28;20344;-86
2023/03/17 07:33:13;;;;;;;5.03;2.63;;;;;;;11.72;41.75;94843.06;4997594;28;20026;-87
2023/03/17 07:35:38;;;;;;;7.43;2.97;;;;;;;11.83;42.50;94847.22;4997681;28;20033;-87
2023/03/17 07:38:04;;;;;;;7.47;2.47;;;;;;;12.02;39.41;94850.16;4996781;28;20034;-87
2023/03/17 07:40:30;;;;;;;5.20;3.05;;;;;;;12.04;40.08;94849.09;4996397;28;20428;-87
2023/03/17 07:42:55;;;;;;;8.40;2.30;;;;;;;12.16;36.75;94847.78;4996771;28;20037;-87
2023/03/17 07:45:20;;;;;;;6.60;2.45;;;;;;;12.36;39.09;94850.66;4996494;28;20344;-87
2023/03/17 07:47:46;;;;;;;9.65;3.17;;;;;;;12.02;41.47;94844.88;4996325;28;20041;-87
2023/03/17 07:50:12;;;;;;;6.47;2.55;;;;;;;12.52;39.99;94854.81;4996299;28;20026;-86
2023/03/17 07:52:37;;;;;;;5.00;2.25;;;;;;;12.64;39.27;94849.25;5012739;28;20093;-87
2023/03/17 07:55:07;;;;;;;6.82;2.25;;;;;;;13.04;39.49;94853.84;4996553;28;20031;-87
2023/03/17 07:57:46;;;;;;;4.30;2.10;;;;;;;13.21;37.64;94853.50;4996338;28;20499;-87
2023/03/17 08:00:12;;;;;;;5.65;2.35;;;;;;;12.58;40.05;94853.72;4996246;28;20112;-87
2023/03/17 08:02:38;;;;;;;4.72;2.20;;;;;;;12.75;37.14;94850.00;4996331;28;20037;-86
2023/03/17 08:05:06;;;;;;;5.53;2.30;;;;;;;13.15;38.14;94844.84;4996251;28;20334;-87
2023/03/17 08:07:44;;;;;;;3.80;1.52;;;;;;;13.29;34.75;94842.38;4996322;28;20065;-86
2023/03/17 08:10:12;;;;;;;3.85;1.38;;;;;;;12.90;32.77;94853.63;4995776;28;20333;-87
2023/03/17 08:12:37;;;;;;;4.07;1.27;;;;;;;12.82;33.17;94849.69;4996033;28;20026;-87
2023/03/17 08:15:03;;;;;;;8.40;1.40;;;;;;;13.15;31.06;94855.34;4996028;28;20145;-87
2023/03/17 08:17:29;;;;;;;2.80;1.15;;;;;;;12.80;31.55;94849.19;4996210;28;20348;-87
2023/03/17 08:19:55;;;;;;;4.88;1.20;;;;;;;12.99;31.50;94854.63;4989392;28;20117;-86
2023/03/17 08:22:21;;;;;;;3.60;1.58;;;;;;;12.91;30.17;94848.09;4967573;28;20030;-86
2023/03/17 08:24:47;;;;;;;2.25;1.27;;;;;;;13.35;31.33;94849.19;4995771;28;20344;-86
2023/03/17 08:27:13;;;;;;;2.95;1.10;;;;;;;13.19;29.67;94845.84;4995490;28;20093;-87
2023/03/17 08:29:39;;;;;;;2.55;1.30;;;;;;;13.28;30.29;94843.44;4996004;28;20348;-86
2023/03/17 08:32:05;;;;;;;2.60;1.10;;;;;;;13.23;30.48;94846.09;4995932;28;20030;-87
2023/03/17 08:34:31;;;;;;;3.63;1.42;;;;;;;13.32;30.64;94843.69;5012175;28;20069;-86
2023/03/17 08:36:59;;;;;;;6.63;1.42;;;;;;;13.89;30.95;94844.09;4996006;28;20403;-85
2023/03/17 08:39:24;;;;;;;2.05;1.13;;;;;;;13.90;30.58;94843.03;4994355;28;20073;-86
2023/03/17 08:41:49;;;;;;;2.67;1.13;;;;;;;14.21;30.44;94847.25;5014946;28;20097;-86
2023/03/17 08:44:15;;;;;;;4.22;1.25;;;;;;;14.04;31.14;94851.09;5000654;28;20349;-86
2023/03/17 08:46:41;;;;;;;3.00;1.50;;;;;;;14.04;29.69;94847.66;4999509;28;20041;-86
2023/03/17 08:49:06;;;;;;;3.67;1.67;;;;;;;13.80;29.60;94840.50;4999182;28;20034;-86
2023/03/17 08:51:34;;;;;;;2.97;1.52;;;;;;;13.96;28.99;94851.69;5000520;28;20394;-86
2023/03/17 08:54:00;;;;;;;4.55;1.60;;;;;;;13.49;31.75;94848.63;4999360;28;20030;-86
2023/03/17 08:56:26;;;;;;;3.80;1.55;;;;;;;14.08;29.27;94840.78;4999488;28;20045;-86
2023/03/17 08:58:53;;;;;;;3.17;1.55;;;;;;;14.30;28.80;94842.16;4999304;28;20041;-86
2023/03/17 09:01:20;;;;;;;4.03;1.20;;;;;;;13.78;29.94;94840.00;4999478;28;20038;-86
2023/03/17 09:03:46;;;;;;;3.58;1.17;;;;;;;13.37;29.63;94841.00;4999179;28;20037;-86
2023/03/17 09:06:12;;;;;;;3.55;1.40;;;;;;;13.83;30.08;94839.94;4998990;28;20073;-86
2023/03/17 09:08:40;;;;;;;3.20;1.40;;;;;;;14.21;29.03;94853.31;4999164;28;20040;-86
2023/03/17 09:11:07;;;;;;;2.92;1.17;;;;;;;14.04;27.79;94837.13;4999072;28;20042;-86
2023/03/17 09:13:33;;;;;;;1.83;1.15;;;;;;;14.42;27.94;94839.94;4999061;28;20034;-86
2023/03/17 09:16:00;;;;;;;2.45;1.20;;;;;;;14.17;26.34;94844.38;4998774;28;20117;-86
2023/03/17 09:18:26;;;;;;;3.17;1.42;;;;;;;14.18;25.94;94838.03;4998954;28;20088;-86
2023/03/17 09:20:51;;;;;;;3.58;1.10;;;;;;;14.57;28.45;94846.91;4999045;28;20033;-86
2023/03/17 09:23:17;;;;;;;4.82;1.30;;;;;;;14.70;26.12;94840.16;4999949;28;20038;-86
2023/03/17 09:25:43;;;;;;;2.08;1.27;;;;;;;14.50;26.85;94835.91;5015333;28;20084;-86
2023/03/17 09:28:10;;;;;;;2.60;1.05;;;;;;;14.60;28.24;94832.34;4998641;28;20344;-86
2023/03/17 09:30:36;;;;;;;3.20;1.00;;;;;;;14.79;27.90;94835.06;5031465;28;20030;-86
2023/03/17 09:33:02;;;;;;;3.00;1.10;;;;;;;14.89;26.89;94834.97;5015155;28;20026;-86
2023/03/17 09:35:28;;;;;;;10.40;1.30;;;;;;;14.31;27.15;94833.19;4998702;28;20034;-86
2023/03/17 09:37:54;;;;;;;4.03;1.15;;;;;;;14.20;27.40;94838.56;5031131;28;20031;-85
2023/03/17 09:40:23;;;;;;;2.05;1.10;;;;;;;15.13;27.61;94834.91;5014867;28;20030;-86
2023/03/17 09:43:00;;;;;;;3.90;1.13;;;;;;;15.26;30.64;94833.41;4998464;28;20068;-86
2023/03/17 09:45:33;;;;;;;2.25;1.15;;;;;;;15.35;27.94;94838.88;4998446;28;20030;-86
2023/03/17 09:48:23;;;;;;;3.22;1.25;;;;;;;14.62;27.26;94836.28;4998625;28;20065;-86
2023/03/17 09:51:01;;;;;;;3.92;1.35;;;;;;;14.79;28.52;94829.81;4998229;28;20049;-86
2023/03/17 09:53:36;;;;;;;4.15;1.30;;;;;;;15.09;26.44;94826.00;5013903;28;20034;-86
2023/03/17 09:56:07;;;;;;;3.20;1.05;;;;;;;15.16;27.35;94827.50;5031041;28;20034;-86
2023/03/17 09:58:33;;;;;;;4.10;1.25;;;;;;;15.16;27.53;94827.50;4998127;28;20037;-86
2023/03/17 10:01:00;;;;;;;5.88;1.42;;;;;;;15.73;29.17;94829.31;5014617;28;20140;-86
2023/03/17 10:03:26;;;;;;;1.58;1.10;;;;;;;15.38;27.58;94824.28;4999193;28;20029;-86
2023/03/17 10:05:55;;;;;;;2.50;1.40;;;;;;;15.27;27.04;94821.00;4998003;28;20052;-86
2023/03/17 10:08:28;;;;;;;3.03;1.33;;;;;;;15.76;27.46;94823.47;4997783;28;20368;-86
2023/03/17 10:11:22;;;;;;;2.90;1.35;;;;;;;15.52;26.32;94817.22;4997999;28;20391;-86
2023/03/17 10:14:08;;;;;;;4.40;1.33;;;;;;;16.20;27.67;94819.56;5014348;28;20129;-87
2023/03/17 10:17:01;;;;;;;2.05;1.15;;;;;;;15.81;27.10;94816.25;4998887;28;20038;-87
2023/03/17 10:19:41;;;;;;;3.40;1.30;;;;;;;16.09;27.38;94811.06;5014187;28;20433;-86
2023/03/17 10:22:30;;;;;;;2.90;1.20;;;;;;;16.31;26.20;94814.13;5014244;28;20112;-86
2023/03/17 10:25:12;;;;;;;6.65;1.55;;;;;;;16.14;26.72;94818.13;5014162;28;20090;-86
2023/03/17 10:27:38;;;;;;;2.92;1.40;;;;;;;16.20;27.57;94816.16;4997581;28;20037;-86
2023/03/17 10:30:10;;;;;;;3.08;1.67;;;;;;;15.96;26.37;94815.25;4997446;28;20034;-87
2023/03/17 10:32:36;;;;;;;4.15;1.75;;;;;;;16.01;27.98;94819.66;4997791;28;20421;-86
2023/03/17 10:35:02;;;;;;;2.63;1.70;;;;;;;15.90;28.20;94812.97;4997563;28;20038;-86
2023/03/17 10:37:32;;;;;;;3.80;1.80;;;;;;;15.30;28.07;94809.88;4997398;28;20193;-86
2023/03/17 10:39:58;;;;;;;6.13;1.63;;;;;;;15.37;27.65;94812.16;4997326;28;20068;-86
2023/03/17 10:42:24;;;;;;;6.88;2.97;;;;;;;15.89;29.19;94811.38;4997273;28;20692;-86
2023/03/17 10:44:53;;;;;;;5.70;2.30;;;;;;;15.32;29.26;94809.59;4998485;28;20026;-86
2023/03/17 10:47:22;;;;;;;5.70;2.17;;;;;;;14.94;29.12;94808.50;5030100;28;20053;-86
2023/03/17 10:49:50;;;;;;;8.50;2.45;;;;;;;15.50;30.54;94813.31;4998219;28;20387;-87
2023/03/17 10:52:26;;;;;;;5.82;2.00;;;;;;;15.64;29.49;94805.44;4997421;28;20030;-87
2023/03/17 10:54:52;;;;;;;9.40;3.08;;;;;;;15.79;30.43;94810.47;5014151;28;20421;-86
2023/03/17 10:57:17;;;;;;;4.60;2.40;;;;;;;15.78;29.77;94808.91;4997055;28;20030;-87
2023/03/17 10:59:49;;;;;;;5.57;2.15;;;;;;;15.56;28.65;94809.50;4997072;28;20037;-86
2023/03/17 11:02:22;;;;;;;5.68;2.63;;;;;;;16.11;29.81;94808.13;5013556;28;20080;-85
2023/03/17 11:04:48;;;;;;;3.38;1.92;;;;;;;15.83;28.48;94810.69;4988934;28;20042;-86
2023/03/17 11:07:19;;;;;;;5.15;1.85;;;;;;;16.47;28.25;94810.09;4996667;28;20437;-87
2023/03/17 11:09:51;;;;;;;5.45;2.75;;;;;;;15.88;30.91;94802.66;4996786;28;20034;-86
2023/03/17 11:12:26;;;;;;;5.03;2.42;;;;;;;16.58;29.64;94805.44;4997013;28;20068;-87
2023/03/17 11:14:59;;;;;;;7.10;2.97;;;;;;;15.96;30.07;94807.31;4996852;28;20087;-86
2023/03/17 11:17:34;;;;;;;;;;;;;;;16.93;30.21;94812.94;4997048;28;20128;-86
2023/03/17 11:20:15;;;;;;;8.95;3.17;;;;;;;16.43;31.53;94811.78;4996821;28;20503;-86
2023/03/17 11:22:45;;;;;;;6.50;2.80;;;;;;;16.15;30.67;94803.06;5013122;28;20126;-86
2023/03/17 11:25:18;;;;;;;11.30;2.85;;;;;;;15.83;30.29;94803.53;4980291;28;20030;-87
2023/03/17 11:27:57;;;;;;;7.93;2.72;;;;;;;16.47;30.51;94799.53;4996758;28;20383;-87
2023/03/17 11:31:01;;;;;;;10.55;2.90;;;;;;;16.87;31.09;94793.75;4996651;28;20038;-87
2023/03/17 11:33:35;;;;;;;4.30;2.72;;;;;;;16.65;31.96;94797.09;4974409;28;20403;-87
2023/03/17 11:36:32;;;;;;;7.32;2.92;;;;;;;15.88;33.63;94789.44;4960147;28;20404;-87
2023/03/17 11:39:03;;;;;;;7.82;2.40;;;;;;;15.60;31.96;94784.09;4985926;28;20042;-87